createdAt,value
2019-02-14T00:00:40.237Z,103027.28
2019-02-14T00:03:10.761Z,103028.36
2019-02-14T00:05:41.253Z,103031.96
2019-02-14T00:08:11.850Z,103036.77
2019-02-14T00:10:42.399Z,103040.59
2019-02-14T00:13:12.896Z,103037.47
2019-02-14T00:15:43.407Z,103034.84
2019-02-14T00:18:13.902Z,103036.87
2019-02-14T00:20:44.389Z,103037.95
2019-02-14T00:23:15.062Z,103045.16
2019-02-14T00:25:45.687Z,103045.58
2019-02-14T00:28:16.168Z,103043.74
2019-02-14T00:30:46.701Z,103040.47
2019-02-14T00:33:17.202Z,103039.95
2019-02-14T00:35:47.801Z,103041.73
2019-02-14T00:38:18.356Z,103049.63
2019-02-14T00:40:48.854Z,103049.00
2019-02-14T00:43:19.183Z,103045.58
2019-02-14T00:45:49.710Z,103036.41
2019-02-14T00:48:20.248Z,103042.36
2019-02-14T00:50:50.671Z,103030.73
2019-02-14T00:53:21.209Z,103035.40
2019-02-14T00:55:51.689Z,103030.23
2019-02-14T00:58:22.208Z,103039.14
2019-02-14T01:00:52.775Z,103035.82
2019-02-14T01:03:23.262Z,103036.47
2019-02-14T01:05:53.730Z,103036.47
2019-02-14T01:08:24.248Z,103041.47
2019-02-14T01:10:54.837Z,103036.52
2019-02-14T01:13:25.311Z,103039.14
2019-02-14T01:15:55.957Z,103044.50
2019-02-14T01:18:26.419Z,103050.97
2019-02-14T01:20:56.984Z,103044.50
2019-02-14T01:23:27.504Z,103047.08
2019-02-14T01:25:57.987Z,103040.31
2019-02-14T01:28:28.511Z,103037.58
2019-02-14T01:30:59.047Z,103029.94
2019-02-14T01:33:29.501Z,103031.88
2019-02-14T01:36:00.136Z,103026.50
2019-02-14T01:38:30.640Z,103023.00
2019-02-14T01:41:01.213Z,103018.71
2019-02-14T01:43:32.091Z,103017.63
2019-02-14T01:46:02.600Z,103012.72
2019-02-14T01:48:33.072Z,103010.48
2019-02-14T01:51:03.572Z,103001.26
2019-02-14T01:53:34.184Z,102995.64
2019-02-14T01:56:04.717Z,102996.58
2019-02-14T01:58:35.224Z,102993.42
2019-02-14T02:01:05.749Z,102997.36
2019-02-14T02:03:36.313Z,102981.63
2019-02-14T02:06:06.882Z,102986.47
2019-02-14T02:08:37.459Z,102984.53
2019-02-14T02:11:07.959Z,102992.02
2019-02-14T02:13:38.484Z,102990.16
2019-02-14T02:16:08.969Z,102988.89
2019-02-14T02:18:40.172Z,102997.23
2019-02-14T02:21:10.677Z,102993.13
2019-02-14T02:23:41.229Z,103000.44
2019-02-14T02:26:11.842Z,103003.11
2019-02-14T02:28:42.361Z,102990.12
2019-02-14T02:31:12.945Z,102983.90
2019-02-14T02:33:43.389Z,102988.58
2019-02-14T02:36:13.955Z,102983.86
2019-02-14T02:38:44.494Z,102990.38
2019-02-14T02:41:15.062Z,103001.94
2019-02-14T02:43:45.538Z,102997.95
2019-02-14T02:46:16.021Z,103010.69
2019-02-14T02:48:46.495Z,103012.44
2019-02-14T02:51:16.983Z,103007.84
2019-02-14T02:53:47.571Z,103016.59
2019-02-14T02:56:18.051Z,103029.28
2019-02-14T02:58:48.599Z,103027.92
2019-02-14T03:01:19.119Z,103030.34
2019-02-14T03:03:49.605Z,103025.09
2019-02-14T03:06:20.220Z,103030.28
2019-02-14T03:08:50.676Z,103042.80
2019-02-14T03:11:21.270Z,103047.62
2019-02-14T03:13:51.753Z,103054.58
2019-02-14T03:16:22.289Z,103052.70
2019-02-14T03:18:52.688Z,103058.64
2019-02-14T03:21:23.161Z,103051.44
2019-02-14T03:23:53.678Z,103040.84
2019-02-14T03:26:24.138Z,103044.78
2019-02-14T03:28:54.640Z,103044.16
2019-02-14T03:31:25.142Z,103041.75
2019-02-14T03:33:55.630Z,103049.22
2019-02-14T03:36:45.237Z,103039.91
2019-02-14T03:39:15.748Z,103035.41
2019-02-14T03:41:46.230Z,103032.16
2019-02-14T03:44:16.742Z,103034.92
2019-02-14T03:46:47.249Z,103043.14
2019-02-14T03:49:17.733Z,103051.94
2019-02-14T03:51:48.223Z,103036.58
2019-02-14T03:54:19.025Z,103034.88
2019-02-14T03:56:50.836Z,103035.79
2019-02-14T03:59:21.397Z,103048.80
2019-02-14T04:01:51.981Z,103059.38
2019-02-14T04:04:22.482Z,103046.89
2019-02-14T04:06:52.962Z,103039.13
2019-02-14T04:09:23.454Z,103043.19
2019-02-14T04:11:53.982Z,103045.15
2019-02-14T04:14:24.553Z,103050.45
2019-02-14T04:16:55.051Z,103046.39
2019-02-14T04:19:25.564Z,103045.91
2019-02-14T04:21:56.027Z,103045.56
2019-02-14T04:24:26.495Z,103057.45
2019-02-14T04:26:57.002Z,103059.19
2019-02-14T04:29:27.541Z,103060.16
2019-02-14T04:31:58.069Z,103052.06
2019-02-14T04:34:28.562Z,103040.41
2019-02-14T04:36:59.161Z,103040.73
2019-02-14T04:39:29.591Z,103038.14
2019-02-14T04:42:00.070Z,103055.20
2019-02-14T04:44:30.611Z,103056.25
2019-02-14T04:47:01.139Z,103062.28
2019-02-14T04:49:31.562Z,103057.31
2019-02-14T04:52:02.144Z,103063.59
2019-02-14T04:54:32.644Z,103069.69
2019-02-14T04:57:03.145Z,103074.02
2019-02-14T04:59:33.665Z,103077.31
2019-02-14T05:02:04.138Z,103076.16
2019-02-14T05:04:34.616Z,103072.43
2019-02-14T05:07:05.179Z,103057.56
2019-02-14T05:09:35.738Z,103051.83
2019-02-14T05:12:06.199Z,103052.54
2019-02-14T05:14:36.691Z,103055.37
2019-02-14T05:17:07.154Z,103057.77
2019-02-14T05:19:37.592Z,103058.16
2019-02-14T05:22:08.190Z,103057.99
2019-02-14T05:24:38.636Z,103062.38
2019-02-14T05:27:09.267Z,103054.63
2019-02-14T05:29:39.699Z,103052.43
2019-02-14T05:32:10.235Z,103066.45
2019-02-14T05:34:40.843Z,103077.88
2019-02-14T05:37:11.381Z,103075.09
2019-02-14T05:39:41.912Z,103075.53
2019-02-14T05:42:12.471Z,103075.18
2019-02-14T05:44:42.960Z,103083.33
2019-02-14T05:47:13.432Z,103084.28
2019-02-14T05:49:43.864Z,103090.92
2019-02-14T05:52:14.328Z,103078.67
2019-02-14T05:54:44.881Z,103077.45
2019-02-14T05:57:15.386Z,103071.44
2019-02-14T05:59:45.915Z,103075.86
2019-02-14T06:02:18.234Z,103077.53
2019-02-14T06:04:48.738Z,103075.42
2019-02-14T06:07:19.278Z,103071.41
2019-02-14T06:09:49.744Z,103075.06
2019-02-14T06:12:20.216Z,103082.89
2019-02-14T06:14:50.723Z,103085.41
2019-02-14T06:17:21.094Z,103087.23
2019-02-14T06:19:51.647Z,103089.05
2019-02-14T06:22:22.182Z,103088.86
2019-02-14T06:24:52.657Z,103094.06
2019-02-14T06:27:23.122Z,103092.88
2019-02-14T06:29:53.651Z,103101.82
2019-02-14T06:32:24.118Z,103113.15
2019-02-14T06:34:54.610Z,103112.27
2019-02-14T06:37:25.214Z,103124.41
2019-02-14T06:39:55.680Z,103120.83
2019-02-14T06:42:26.163Z,103119.62
2019-02-14T06:44:56.758Z,103119.70
2019-02-14T06:47:27.311Z,103121.62
2019-02-14T06:49:57.770Z,103120.39
2019-02-14T06:52:28.282Z,103114.63
2019-02-14T06:54:58.820Z,103118.92
2019-02-14T06:57:29.284Z,103122.78
2019-02-14T06:59:59.790Z,103121.73
2019-02-14T07:02:30.294Z,103131.52
2019-02-14T07:05:00.836Z,103138.40
2019-02-14T07:07:31.355Z,103146.34
2019-02-14T07:10:01.868Z,103147.26
2019-02-14T07:12:32.366Z,103145.91
2019-02-14T07:15:02.898Z,103141.02
2019-02-14T07:17:33.374Z,103146.03
2019-02-14T07:20:03.975Z,103147.27
2019-02-14T07:22:34.482Z,103149.30
2019-02-14T07:25:05.125Z,103149.86
2019-02-14T07:27:35.629Z,103157.42
2019-02-14T07:30:09.950Z,103160.75
2019-02-14T07:32:40.392Z,103159.48
2019-02-14T07:35:11.477Z,103168.03
2019-02-14T07:37:41.981Z,103162.38
2019-02-14T07:40:14.198Z,103158.84
2019-02-14T07:42:44.798Z,103163.95
2019-02-14T07:45:15.873Z,103173.92
2019-02-14T07:47:46.374Z,103170.70
2019-02-14T07:50:16.864Z,103161.83
2019-02-14T07:52:47.392Z,103157.34
2019-02-14T07:55:18.036Z,103164.81
2019-02-14T07:57:48.508Z,103165.84
2019-02-14T08:00:19.079Z,103158.48
2019-02-14T08:02:49.591Z,103162.30
2019-02-14T08:05:20.101Z,103153.23
2019-02-14T08:07:50.608Z,103152.32
2019-02-14T08:10:21.137Z,103140.94
2019-02-14T08:12:51.629Z,103139.16
2019-02-14T08:15:22.128Z,103138.26
2019-02-14T08:17:52.627Z,103148.02
2019-02-14T08:20:23.212Z,103150.33
2019-02-14T08:22:53.706Z,103154.63
2019-02-14T08:25:24.214Z,103150.64
2019-02-14T08:27:54.735Z,103153.47
2019-02-14T08:30:25.243Z,103145.90
2019-02-14T08:32:55.751Z,103144.27
2019-02-14T08:35:26.316Z,103149.03
2019-02-14T08:37:56.833Z,103149.83
2019-02-14T08:40:27.346Z,103147.32
2019-02-14T08:42:58.698Z,103147.07
2019-02-14T08:45:29.909Z,103153.20
2019-02-14T08:48:00.396Z,103152.98
2019-02-14T08:50:31.051Z,103150.56
2019-02-14T08:53:01.610Z,103148.17
2019-02-14T08:55:32.180Z,103142.78
2019-02-14T08:58:02.667Z,103143.62
2019-02-14T09:00:33.150Z,103143.67
2019-02-14T09:03:03.621Z,103148.44
2019-02-14T09:05:34.119Z,103146.12
2019-02-14T09:08:04.600Z,103148.44
2019-02-14T09:10:35.099Z,103141.56
2019-02-14T09:13:05.601Z,103142.27
2019-02-14T09:15:36.122Z,103148.84
2019-02-14T09:18:07.916Z,103136.30
2019-02-14T09:20:38.582Z,103139.11
2019-02-14T09:23:09.068Z,103139.41
2019-02-14T09:25:39.606Z,103144.28
2019-02-14T09:28:10.128Z,103142.57
2019-02-14T09:30:40.671Z,103138.58
2019-02-14T09:33:11.176Z,103130.20
2019-02-14T09:35:41.658Z,103130.96
2019-02-14T09:38:12.155Z,103128.82
2019-02-14T09:40:42.608Z,103134.29
2019-02-14T09:43:13.101Z,103127.16
2019-02-14T09:45:43.644Z,103123.38
2019-02-14T09:48:17.321Z,103126.05
2019-02-14T09:50:47.896Z,103127.67
2019-02-14T09:53:18.401Z,103124.48
2019-02-14T09:55:48.864Z,103109.42
2019-02-14T09:58:19.406Z,103115.64
2019-02-14T10:00:49.922Z,103115.77
2019-02-14T10:03:20.381Z,103114.41
2019-02-14T10:05:50.940Z,103110.77
2019-02-14T10:08:21.449Z,103106.08
2019-02-14T10:10:51.912Z,103105.33
2019-02-14T10:13:22.404Z,103112.52
2019-02-14T10:15:52.910Z,103117.03
2019-02-14T10:18:23.404Z,103112.95
2019-02-14T10:20:53.939Z,103114.84
2019-02-14T10:23:24.417Z,103110.81
2019-02-14T10:25:54.912Z,103113.86
2019-02-14T10:28:25.397Z,103102.67
2019-02-14T10:30:55.886Z,103104.81
2019-02-14T10:33:26.359Z,103104.91
2019-02-14T10:35:56.889Z,103100.97
2019-02-14T10:38:27.418Z,103111.23
2019-02-14T10:40:57.885Z,103111.88
2019-02-14T10:43:28.579Z,103106.12
2019-02-14T10:45:59.128Z,103109.61
2019-02-14T10:48:29.665Z,103113.91
2019-02-14T10:51:00.257Z,103120.20
2019-02-14T10:53:30.818Z,103125.61
2019-02-14T10:56:01.265Z,103134.77
2019-02-14T10:58:31.802Z,103131.08
2019-02-14T11:01:02.293Z,103131.37
2019-02-14T11:03:32.791Z,103128.25
2019-02-14T11:06:03.314Z,103123.33
2019-02-14T11:08:33.807Z,103134.36
2019-02-14T11:11:04.290Z,103131.63
2019-02-14T11:13:34.828Z,103136.94
2019-02-14T11:16:06.766Z,103141.06
2019-02-14T11:18:43.932Z,103133.17
2019-02-14T11:21:09.634Z,103131.89
2019-02-14T11:23:40.151Z,103131.82
2019-02-14T11:26:10.614Z,103132.72
2019-02-14T11:28:41.115Z,103133.36
2019-02-14T11:31:11.602Z,103123.16
2019-02-14T11:33:42.215Z,103126.30
2019-02-14T11:36:12.703Z,103125.44
2019-02-14T11:38:43.230Z,103127.52
2019-02-14T11:41:13.801Z,103128.75
2019-02-14T11:43:44.385Z,103122.94
2019-02-14T11:46:14.887Z,103114.66
2019-02-14T11:48:45.368Z,103117.09
2019-02-14T11:51:15.992Z,103111.48
2019-02-14T11:53:46.542Z,103117.75
2019-02-14T11:56:16.979Z,103112.96
2019-02-14T11:58:47.493Z,103112.25
2019-02-14T12:01:17.971Z,103106.92
2019-02-14T12:03:48.447Z,103103.35
2019-02-14T12:06:18.936Z,103109.23
2019-02-14T12:08:59.548Z,103103.80
2019-02-14T12:11:21.720Z,103098.41
2019-02-14T12:13:52.216Z,103098.28
2019-02-14T12:16:22.707Z,103100.77
2019-02-14T12:18:53.157Z,103089.31
2019-02-14T12:21:23.559Z,103091.01
2019-02-14T12:23:54.191Z,103087.58
2019-02-14T12:26:24.688Z,103084.27
2019-02-14T12:28:55.219Z,103082.83
2019-02-14T12:31:25.690Z,103078.39
2019-02-14T12:33:56.277Z,103070.02
2019-02-14T12:36:26.748Z,103073.75
2019-02-14T12:38:57.201Z,103063.07
2019-02-14T12:41:27.690Z,103061.52
2019-02-14T12:43:58.297Z,103066.77
2019-02-14T12:46:28.846Z,103055.66
2019-02-14T12:48:59.404Z,103059.84
2019-02-14T12:51:29.996Z,103050.49
2019-02-14T12:54:00.526Z,103049.39
2019-02-14T12:56:31.017Z,103045.16
2019-02-14T12:59:01.508Z,103039.27
2019-02-14T13:01:32.018Z,103041.39
2019-02-14T13:04:02.440Z,103041.91
2019-02-14T13:06:32.872Z,103039.50
2019-02-14T13:09:04.739Z,103040.90
2019-02-14T13:11:35.132Z,103039.27
2019-02-14T13:14:05.631Z,103032.51
2019-02-14T13:16:36.300Z,103028.27
2019-02-14T13:19:06.689Z,103027.85
2019-02-14T13:21:37.191Z,103028.65
2019-02-14T13:24:07.632Z,103029.66
2019-02-14T13:26:38.094Z,103027.64
2019-02-14T13:29:08.652Z,103020.20
2019-02-14T13:31:39.109Z,103015.92
2019-02-14T13:34:09.609Z,103019.42
2019-02-14T13:36:40.127Z,103020.81
2019-02-14T13:39:10.738Z,103016.75
2019-02-14T13:41:41.246Z,103020.36
2019-02-14T13:44:11.749Z,103018.47
2019-02-14T13:46:42.209Z,103028.59
2019-02-14T13:49:12.704Z,103024.94
2019-02-14T13:51:43.219Z,103021.21
2019-02-14T13:54:13.727Z,103021.14
2019-02-14T13:56:44.170Z,103018.38
2019-02-14T13:59:14.653Z,103017.30
2019-02-14T14:01:45.186Z,103011.25
2019-02-14T14:04:15.685Z,103018.09
2019-02-14T14:06:46.213Z,103016.21
2019-02-14T14:09:16.794Z,103019.04
2019-02-14T14:11:47.221Z,103020.88
2019-02-14T14:14:17.657Z,103016.28
2019-02-14T14:16:48.086Z,103015.45
2019-02-14T14:19:18.566Z,103019.42
2019-02-14T14:21:49.159Z,103016.28
2019-02-14T14:24:22.471Z,103009.91
2019-02-14T14:26:53.319Z,103012.55
2019-02-14T14:29:23.807Z,103011.39
2019-02-14T14:31:54.287Z,103014.04
2019-02-14T14:34:24.945Z,103016.86
2019-02-14T14:36:55.412Z,103010.45
2019-02-14T14:39:25.901Z,103018.48
2019-02-14T14:41:56.382Z,103019.42
2019-02-14T14:44:40.898Z,103019.56
2019-02-14T14:47:15.175Z,103018.80
2019-02-14T14:49:45.706Z,103020.21
2019-02-14T14:52:16.430Z,103019.72
2019-02-14T14:54:47.037Z,103023.69
2019-02-14T14:57:17.536Z,103025.95
2019-02-14T14:59:48.029Z,103026.27
2019-02-14T15:02:18.681Z,103022.46
2019-02-14T15:04:49.446Z,103020.83
2019-02-14T15:07:19.949Z,103024.70
2019-02-14T15:09:57.283Z,103023.52
2019-02-14T15:12:30.611Z,103022.83
2019-02-14T15:15:01.378Z,103018.94
2019-02-14T15:17:33.206Z,103024.78
2019-02-14T15:20:03.970Z,103020.20
2019-02-14T15:22:37.202Z,103026.42
2019-02-14T15:25:07.882Z,103022.22
2019-02-14T15:27:40.052Z,103024.45
2019-02-14T15:30:10.860Z,103019.16
2019-02-14T15:32:41.501Z,103022.36
2019-02-14T15:35:12.252Z,103021.94
2019-02-14T15:37:44.571Z,103022.73
2019-02-14T15:40:15.377Z,103019.02
2019-02-14T15:42:45.821Z,103026.31
2019-02-14T15:45:16.564Z,103023.48
2019-02-14T15:47:47.020Z,103028.81
2019-02-14T15:50:17.752Z,103026.67
2019-02-14T15:52:48.619Z,103027.55
2019-02-14T15:55:19.983Z,103032.84
2019-02-14T15:57:51.387Z,103027.36
2019-02-14T16:00:22.016Z,103032.53
2019-02-14T16:02:52.663Z,103026.11
2019-02-14T16:05:23.150Z,103023.56
2019-02-14T16:08:12.770Z,103024.22
2019-02-14T16:10:43.320Z,103027.15
2019-02-14T16:13:13.846Z,103031.27
2019-02-14T16:15:44.474Z,103031.27
2019-02-14T16:18:14.989Z,103028.73
2019-02-14T16:20:45.387Z,103022.80
2019-02-14T16:23:16.072Z,103025.70
2019-02-14T16:25:46.572Z,103019.39
2019-02-14T16:28:17.106Z,103025.85
2019-02-14T16:30:47.595Z,103027.06
2019-02-14T16:33:18.096Z,103027.19
2019-02-14T16:35:48.657Z,103030.57
2019-02-14T16:38:19.176Z,103023.11
2019-02-14T16:40:49.775Z,103026.69
2019-02-14T16:43:20.229Z,103030.19
2019-02-14T16:45:50.769Z,103036.42
2019-02-14T16:48:21.360Z,103036.09
2019-02-14T16:50:51.941Z,103034.16
2019-02-14T16:53:22.473Z,103033.33
2019-02-14T16:56:01.676Z,103030.42
2019-02-14T16:58:25.096Z,103033.05
2019-02-14T17:00:55.710Z,103032.26
2019-02-14T17:03:26.213Z,103034.98
2019-02-14T17:05:56.767Z,103032.78
2019-02-14T17:08:27.374Z,103039.34
2019-02-14T17:10:57.939Z,103041.69
2019-02-14T17:13:28.494Z,103038.16
2019-02-14T17:15:59.061Z,103035.92
2019-02-14T17:18:29.534Z,103037.41
2019-02-14T17:21:00.005Z,103027.38
2019-02-14T17:23:30.538Z,103030.48
2019-02-14T17:26:01.098Z,103039.03
2019-02-14T17:28:31.613Z,103040.98
2019-02-14T17:31:02.130Z,103036.97
2019-02-14T17:33:32.710Z,103032.63
2019-02-14T17:36:03.222Z,103037.11
2019-02-14T17:38:33.786Z,103044.33
2019-02-14T17:41:04.253Z,103037.63
2019-02-14T17:43:34.804Z,103040.26
2019-02-14T17:46:05.474Z,103036.61
2019-02-14T17:48:35.936Z,103045.70
2019-02-14T17:51:06.444Z,103051.41
2019-02-14T17:53:37.010Z,103041.55
2019-02-14T17:56:07.568Z,103044.66
2019-02-14T17:58:38.098Z,103040.33
2019-02-14T18:01:08.619Z,103034.44
2019-02-14T18:03:39.144Z,103040.91
2019-02-14T18:06:09.647Z,103044.59
2019-02-14T18:08:40.214Z,103043.43
2019-02-14T18:11:10.775Z,103040.36
2019-02-14T18:13:41.227Z,103046.28
2019-02-14T18:16:11.783Z,103042.71
2019-02-14T18:18:42.290Z,103040.49
2019-02-14T18:21:12.815Z,103046.45
2019-02-14T18:23:43.307Z,103052.53
2019-02-14T18:26:14.842Z,103051.05
2019-02-14T18:28:45.434Z,103046.80
2019-02-14T18:31:15.909Z,103054.94
2019-02-14T18:33:46.447Z,103055.23
2019-02-14T18:36:16.938Z,103053.80
2019-02-14T18:38:47.589Z,103045.28
2019-02-14T18:41:18.049Z,103035.89
2019-02-14T18:43:48.545Z,103037.30
2019-02-14T18:46:19.357Z,103043.91
2019-02-14T18:48:49.975Z,103043.56
2019-02-14T18:51:20.486Z,103043.95
2019-02-14T18:53:50.894Z,103047.90
2019-02-14T18:56:21.460Z,103044.97
2019-02-14T18:58:51.940Z,103051.66
2019-02-14T19:01:22.478Z,103052.14
2019-02-14T19:03:52.949Z,103060.00
2019-02-14T19:06:23.477Z,103050.11
2019-02-14T19:08:54.091Z,103046.08
2019-02-14T19:11:24.586Z,103051.54
2019-02-14T19:13:55.046Z,103040.74
2019-02-14T19:16:25.574Z,103047.83
2019-02-14T19:18:56.053Z,103050.94
2019-02-14T19:21:26.546Z,103052.20
2019-02-14T19:23:57.089Z,103048.80
2019-02-14T19:26:27.608Z,103047.00
2019-02-14T19:28:58.078Z,103047.69
2019-02-14T19:31:28.713Z,103050.27
2019-02-14T19:33:59.199Z,103049.05
2019-02-14T19:36:29.771Z,103048.97
2019-02-14T19:39:00.348Z,103042.53
2019-02-14T19:41:30.883Z,103047.16
2019-02-14T19:44:01.376Z,103046.23
2019-02-14T19:46:31.925Z,103048.83
2019-02-14T19:49:02.438Z,103050.30
2019-02-14T19:51:32.978Z,103040.13
2019-02-14T19:54:03.608Z,103040.59
2019-02-14T19:56:34.161Z,103040.52
2019-02-14T19:59:04.671Z,103041.72
2019-02-14T20:01:35.394Z,103038.61
2019-02-14T20:04:05.902Z,103028.91
2019-02-14T20:06:36.414Z,103027.88
2019-02-14T20:09:07.742Z,103034.24
2019-02-14T20:11:38.319Z,103035.59
2019-02-14T20:14:08.767Z,103038.61
2019-02-14T20:16:39.263Z,103026.52
2019-02-14T20:19:09.712Z,103028.34
2019-02-14T20:21:40.174Z,103022.91
2019-02-14T20:24:10.770Z,103021.92
2019-02-14T20:26:41.266Z,103023.23
2019-02-14T20:29:11.750Z,103026.33
2019-02-14T20:31:42.394Z,103025.02
2019-02-14T20:34:12.944Z,103022.23
2019-02-14T20:36:43.498Z,103025.85
2019-02-14T20:39:14.096Z,103020.37
2019-02-14T20:41:46.332Z,103028.11
2019-02-14T20:44:17.575Z,103028.16
2019-02-14T20:46:48.212Z,103034.05
2019-02-14T20:49:18.711Z,103035.91
2019-02-14T20:51:49.217Z,103030.30
2019-02-14T20:54:19.756Z,103036.85
2019-02-14T20:56:50.287Z,103049.78
2019-02-14T20:59:20.858Z,103059.38
2019-02-14T21:01:51.412Z,103065.47
2019-02-14T21:04:22.190Z,103060.02
2019-02-14T21:06:52.816Z,103073.55
2019-02-14T21:09:23.331Z,103081.11
2019-02-14T21:11:54.932Z,103078.20
2019-02-14T21:14:25.690Z,103074.27
2019-02-14T21:16:56.184Z,103077.92
2019-02-14T21:19:26.761Z,103072.18
2019-02-14T21:21:57.389Z,103067.91
2019-02-14T21:24:27.875Z,103067.98
2019-02-14T21:26:58.383Z,103070.32
2019-02-14T21:29:28.960Z,103065.18
2019-02-14T21:32:00.013Z,103072.60
2019-02-14T21:34:30.554Z,103069.22
2019-02-14T21:37:01.080Z,103072.38
2019-02-14T21:39:31.615Z,103070.79
2019-02-14T21:42:18.716Z,103072.52
2019-02-14T21:44:34.439Z,103066.16
2019-02-14T21:47:05.342Z,103067.08
2019-02-14T21:49:35.881Z,103069.71
2019-02-14T21:52:06.468Z,103065.00
2019-02-14T21:54:36.985Z,103065.00
2019-02-14T21:57:07.522Z,103064.13
2019-02-14T21:59:37.869Z,103065.05
2019-02-14T22:02:08.380Z,103058.86
2019-02-14T22:04:38.934Z,103061.13
2019-02-14T22:07:09.858Z,103061.75
2019-02-14T22:09:40.704Z,103062.62
2019-02-14T22:12:11.231Z,103055.97
2019-02-14T22:14:41.783Z,103059.11
2019-02-14T22:17:12.315Z,103062.50
2019-02-14T22:19:43.061Z,103061.20
2019-02-14T22:22:13.562Z,103064.67
2019-02-14T22:24:44.084Z,103071.35
2019-02-14T22:27:14.617Z,103073.23
2019-02-14T22:29:45.181Z,103072.81
2019-02-14T22:32:15.665Z,103071.48
2019-02-14T22:34:46.253Z,103075.47
2019-02-14T22:37:16.705Z,103072.54
2019-02-14T22:39:47.183Z,103070.37
2019-02-14T22:42:17.755Z,103073.01
2019-02-14T22:44:48.323Z,103076.53
2019-02-14T22:47:18.939Z,103075.70
2019-02-14T22:49:49.636Z,103074.94
2019-02-14T22:52:20.210Z,103079.27
2019-02-14T22:54:50.784Z,103082.91
2019-02-14T22:57:21.350Z,103082.11
2019-02-14T22:59:51.902Z,103078.72
2019-02-14T23:02:22.680Z,103076.20
2019-02-14T23:04:53.203Z,103069.34
2019-02-14T23:07:23.777Z,103072.87
2019-02-14T23:09:54.676Z,103074.36
2019-02-14T23:12:25.242Z,103071.42
2019-02-14T23:14:55.756Z,103074.42
2019-02-14T23:17:26.355Z,103082.30
2019-02-14T23:19:56.850Z,103085.44
2019-02-14T23:22:27.431Z,103079.48
2019-02-14T23:24:58.071Z,103073.95
2019-02-14T23:27:28.628Z,103083.57
2019-02-14T23:29:59.141Z,103067.93
2019-02-14T23:32:29.712Z,103068.38
2019-02-14T23:35:00.379Z,103070.86
2019-02-14T23:37:31.118Z,103070.31
2019-02-14T23:40:01.611Z,103078.56
2019-02-14T23:42:32.130Z,103075.94
2019-02-14T23:45:02.722Z,103082.56
2019-02-14T23:47:33.222Z,103077.36
2019-02-14T23:50:03.823Z,103073.47
2019-02-14T23:52:34.354Z,103078.56
2019-02-14T23:55:04.953Z,103075.05
2019-02-14T23:57:35.450Z,103072.00
